Kihei, HI

2:45 PM HST on July 29, 2015 (GMT -1000)
La Perouse Bay | | Change Station
CLOSE
Current Station
Personal Weather Station
Location: Kihei, HI
Elevation: 30 ft
Nearby Weather Stations

Elev 30 ft 20.60 °N, 156.42 °W | Updated 32 seconds ago

Scattered Clouds
Scattered Clouds
86.6 °F
Feels Like 93 °F
N
7.0
Wind Variable Wind from East

Today
High -- | Low -- °F
--% Chance of Precip.
Yesterday
High -- | Low -- °F
Precip. -- in
5:59 AM 7:05 PM
Waxing Gibbous, 97% visible
Pressure 29.91 in
Visibility 10.0 miles
Clouds Scattered Clouds 4000 ft
Scattered Clouds 6000 ft
Heat Index 93 °F
Dew Point 72 °F
Humidity 62%
Rainfall 0.00 in
Snow Depth Not available.
UV 8.0 out of 12
Pollen Not available.
Air Quality Not available.
Flu Activity Not available.
METAR PHOG 292354Z 05018G26KT 10SM SCT040 SCT060 33/21 A2990 RMK AO2 PK WND 05027/2340 SLP129 60001 T03330206 10339 20272 58018

More Conditions Fewer Conditions

Pressure 29.91 in
Visibility 10.0 miles
Clouds Scattered Clouds 4000 ft
Scattered Clouds 6000 ft
Heat Index 93 °F
Dew Point 72 °F
Humidity 62%
Rainfall 0.00 in
Snow Depth Not available.
UV 8.0 out of 12
Pollen Not available.
Air Quality Not available.
Flu Activity Not available.
METAR PHOG 292354Z 05018G26KT 10SM SCT040 SCT060 33/21 A2990 RMK AO2 PK WND 05027/2340 SLP129 60001 T03330206 10339 20272 58018

More Conditions Fewer Conditions

10-Day Weather Forecast

×

Almanac

Astronomy

Jul. 29, 2015 Rise Set
Actual Time
Civil Twilight
Nautical Twilight
Astronomical Twilight
Moon
Length of Visible Light
Length of Day
Tomorrow will be .
, % of the Moon is Illuminated

Today's Extremes

State Highs State Lows

Community

WunderPhotos

Upload Photos

1,842,233 photos uploaded!

WunderBlogs® & News

Nearby

Air Quality

  Air Quality AQ Index Pollutant
Not available.

Snow Depth

Station Depth Elevation

Earthquake Activity

City Distance Mag. Time & Date
Minimum magnitude displayed is 2.5.

Coastal Water Temperatures

Place Temperature

Stations

Nearby Weather Stations

Station Location Temp. Windchill Dew Point Humidity Wind Precip. Elev Updated Type